sensor_id;sensor_type;location;lat;lon;timestamp;temperature;humidity
80256;DHT22;69564;37.974;23.708;2023-04-25T00:02:21;23.30;39.50
80256;DHT22;69564;37.974;23.708;2023-04-25T00:04:47;23.30;39.40
80256;DHT22;69564;37.974;23.708;2023-04-25T00:07:15;23.30;39.50
80256;DHT22;69564;37.974;23.708;2023-04-25T00:09:42;23.30;39.30
80256;DHT22;69564;37.974;23.708;2023-04-25T00:12:07;23.30;39.20
80256;DHT22;69564;37.974;23.708;2023-04-25T00:14:33;23.30;39.40
80256;DHT22;69564;37.974;23.708;2023-04-25T00:17:00;23.30;39.20
80256;DHT22;69564;37.974;23.708;2023-04-25T00:19:26;23.30;39.10
80256;DHT22;69564;37.974;23.708;2023-04-25T00:21:54;23.20;38.90
80256;DHT22;69564;37.974;23.708;2023-04-25T00:24:20;23.30;38.80
80256;DHT22;69564;37.974;23.708;2023-04-25T00:26:46;23.30;38.70
80256;DHT22;69564;37.974;23.708;2023-04-25T00:29:12;23.30;38.60
80256;DHT22;69564;37.974;23.708;2023-04-25T00:31:38;23.30;38.40
80256;DHT22;69564;37.974;23.708;2023-04-25T00:34:04;23.40;38.30
80256;DHT22;69564;37.974;23.708;2023-04-25T00:36:30;23.40;38.20
80256;DHT22;69564;37.974;23.708;2023-04-25T00:38:56;23.40;38.20
80256;DHT22;69564;37.974;23.708;2023-04-25T00:41:22;23.40;37.80
80256;DHT22;69564;37.974;23.708;2023-04-25T00:43:48;23.40;37.60
80256;DHT22;69564;37.974;23.708;2023-04-25T00:46:14;23.40;37.50
80256;DHT22;69564;37.974;23.708;2023-04-25T00:48:40;23.50;37.50
80256;DHT22;69564;37.974;23.708;2023-04-25T00:51:06;23.40;37.40
80256;DHT22;69564;37.974;23.708;2023-04-25T00:53:32;23.40;37.60
80256;DHT22;69564;37.974;23.708;2023-04-25T00:55:58;23.40;37.50
80256;DHT22;69564;37.974;23.708;2023-04-25T00:58:24;23.40;37.40
80256;DHT22;69564;37.974;23.708;2023-04-25T01:00:51;23.30;37.30
80256;DHT22;69564;37.974;23.708;2023-04-25T01:03:18;23.30;37.30
80256;DHT22;69564;37.974;23.708;2023-04-25T01:05:47;23.30;37.30
80256;DHT22;69564;37.974;23.708;2023-04-25T01:08:14;23.30;37.30
80256;DHT22;69564;37.974;23.708;2023-04-25T01:10:39;23.30;37.20
80256;DHT22;69564;37.974;23.708;2023-04-25T01:13:05;23.30;37.10
80256;DHT22;69564;37.974;23.708;2023-04-25T01:15:32;23.30;36.90
80256;DHT22;69564;37.974;23.708;2023-04-25T01:17:58;23.30;36.80
80256;DHT22;69564;37.974;23.708;2023-04-25T01:20:26;23.30;36.90
80256;DHT22;69564;37.974;23.708;2023-04-25T01:22:54;23.20;36.80
80256;DHT22;69564;37.974;23.708;2023-04-25T01:25:22;23.20;36.60
80256;DHT22;69564;37.974;23.708;2023-04-25T01:27:47;23.30;36.50
80256;DHT22;69564;37.974;23.708;2023-04-25T01:30:14;23.30;36.40
80256;DHT22;69564;37.974;23.708;2023-04-25T01:32:40;23.30;36.40
80256;DHT22;69564;37.974;23.708;2023-04-25T01:35:11;23.30;36.20
80256;DHT22;69564;37.974;23.708;2023-04-25T01:37:38;23.30;36.10
80256;DHT22;69564;37.974;23.708;2023-04-25T01:40:05;23.30;36.10
80256;DHT22;69564;37.974;23.708;2023-04-25T01:42:33;23.30;36.10
80256;DHT22;69564;37.974;23.708;2023-04-25T01:44:59;23.30;36.00
80256;DHT22;69564;37.974;23.708;2023-04-25T01:47:25;23.30;36.10
80256;DHT22;69564;37.974;23.708;2023-04-25T01:49:51;23.30;36.20
80256;DHT22;69564;37.974;23.708;2023-04-25T01:52:16;23.20;36.30
80256;DHT22;69564;37.974;23.708;2023-04-25T01:54:42;23.30;36.30
80256;DHT22;69564;37.974;23.708;2023-04-25T01:57:13;23.20;36.20
80256;DHT22;69564;37.974;23.708;2023-04-25T01:59:41;23.20;36.20
80256;DHT22;69564;37.974;23.708;2023-04-25T02:02:07;23.20;36.20
80256;DHT22;69564;37.974;23.708;2023-04-25T02:04:33;23.20;36.10
80256;DHT22;69564;37.974;23.708;2023-04-25T02:06:59;23.30;36.10
80256;DHT22;69564;37.974;23.708;2023-04-25T02:09:24;23.20;35.90
80256;DHT22;69564;37.974;23.708;2023-04-25T02:11:50;23.20;35.80
80256;DHT22;69564;37.974;23.708;2023-04-25T02:14:16;23.30;35.80
80256;DHT22;69564;37.974;23.708;2023-04-25T02:16:42;23.20;35.70
80256;DHT22;69564;37.974;23.708;2023-04-25T02:19:09;23.20;35.60
80256;DHT22;69564;37.974;23.708;2023-04-25T02:21:35;23.20;35.50
80256;DHT22;69564;37.974;23.708;2023-04-25T02:24:02;23.10;35.60
80256;DHT22;69564;37.974;23.708;2023-04-25T02:26:27;23.10;35.40
80256;DHT22;69564;37.974;23.708;2023-04-25T02:28:53;23.10;35.30
80256;DHT22;69564;37.974;23.708;2023-04-25T02:31:19;23.00;35.20
80256;DHT22;69564;37.974;23.708;2023-04-25T02:33:45;23.10;35.20
80256;DHT22;69564;37.974;23.708;2023-04-25T02:36:11;23.00;35.10
80256;DHT22;69564;37.974;23.708;2023-04-25T02:38:36;23.10;36.20
80256;DHT22;69564;37.974;23.708;2023-04-25T02:41:02;23.10;34.90
80256;DHT22;69564;37.974;23.708;2023-04-25T02:43:28;23.00;34.80
80256;DHT22;69564;37.974;23.708;2023-04-25T02:45:53;23.00;34.60
80256;DHT22;69564;37.974;23.708;2023-04-25T02:48:19;23.00;34.70
80256;DHT22;69564;37.974;23.708;2023-04-25T02:50:45;23.00;34.60
80256;DHT22;69564;37.974;23.708;2023-04-25T02:53:11;23.00;34.70
80256;DHT22;69564;37.974;23.708;2023-04-25T02:55:37;22.90;34.60
80256;DHT22;69564;37.974;23.708;2023-04-25T02:58:02;22.90;34.60
80256;DHT22;69564;37.974;23.708;2023-04-25T03:00:28;22.90;34.60
80256;DHT22;69564;37.974;23.708;2023-04-25T03:02:54;22.90;34.60
80256;DHT22;69564;37.974;23.708;2023-04-25T03:05:21;22.90;34.50
80256;DHT22;69564;37.974;23.708;2023-04-25T03:07:46;22.90;34.50
80256;DHT22;69564;37.974;23.708;2023-04-25T03:10:12;22.90;34.50
80256;DHT22;69564;37.974;23.708;2023-04-25T03:12:38;22.90;34.50
80256;DHT22;69564;37.974;23.708;2023-04-25T03:15:04;22.90;34.50
80256;DHT22;69564;37.974;23.708;2023-04-25T03:17:30;23.00;34.40
80256;DHT22;69564;37.974;23.708;2023-04-25T03:19:56;22.90;34.50
80256;DHT22;69564;37.974;23.708;2023-04-25T03:22:22;22.90;34.70
80256;DHT22;69564;37.974;23.708;2023-04-25T03:24:49;22.90;34.90
80256;DHT22;69564;37.974;23.708;2023-04-25T03:27:15;22.80;35.00
80256;DHT22;69564;37.974;23.708;2023-04-25T03:29:41;22.80;35.00
80256;DHT22;69564;37.974;23.708;2023-04-25T03:32:06;22.80;35.00
80256;DHT22;69564;37.974;23.708;2023-04-25T03:34:32;22.80;35.00
80256;DHT22;69564;37.974;23.708;2023-04-25T03:36:58;22.90;35.10
80256;DHT22;69564;37.974;23.708;2023-04-25T03:39:25;22.90;35.10
80256;DHT22;69564;37.974;23.708;2023-04-25T03:41:51;22.90;35.20
80256;DHT22;69564;37.974;23.708;2023-04-25T03:44:17;22.90;35.10
80256;DHT22;69564;37.974;23.708;2023-04-25T03:46:42;22.90;35.20
80256;DHT22;69564;37.974;23.708;2023-04-25T03:49:08;22.80;35.10
80256;DHT22;69564;37.974;23.708;2023-04-25T03:51:34;22.80;35.20
80256;DHT22;69564;37.974;23.708;2023-04-25T03:53:59;22.80;35.20
80256;DHT22;69564;37.974;23.708;2023-04-25T03:56:25;22.80;35.30
80256;DHT22;69564;37.974;23.708;2023-04-25T03:58:51;22.80;35.40
80256;DHT22;69564;37.974;23.708;2023-04-25T04:01:17;22.80;35.40
80256;DHT22;69564;37.974;23.708;2023-04-25T04:03:42;22.80;35.40
80256;DHT22;69564;37.974;23.708;2023-04-25T04:06:08;22.80;35.80
80256;DHT22;69564;37.974;23.708;2023-04-25T04:08:34;22.80;36.00
80256;DHT22;69564;37.974;23.708;2023-04-25T04:11:00;22.80;36.30
80256;DHT22;69564;37.974;23.708;2023-04-25T04:13:27;22.80;36.40
80256;DHT22;69564;37.974;23.708;2023-04-25T04:15:53;22.80;36.60
80256;DHT22;69564;37.974;23.708;2023-04-25T04:18:19;22.80;36.50
80256;DHT22;69564;37.974;23.708;2023-04-25T04:20:45;22.90;36.30
80256;DHT22;69564;37.974;23.708;2023-04-25T04:23:12;22.90;36.30
80256;DHT22;69564;37.974;23.708;2023-04-25T04:25:38;23.00;36.50
80256;DHT22;69564;37.974;23.708;2023-04-25T04:28:05;23.10;36.50
80256;DHT22;69564;37.974;23.708;2023-04-25T04:30:31;23.10;36.50
80256;DHT22;69564;37.974;23.708;2023-04-25T04:32:58;23.20;36.40
80256;DHT22;69564;37.974;23.708;2023-04-25T04:35:24;23.20;36.30
80256;DHT22;69564;37.974;23.708;2023-04-25T04:37:50;23.30;36.20
80256;DHT22;69564;37.974;23.708;2023-04-25T04:40:17;23.40;36.20
80256;DHT22;69564;37.974;23.708;2023-04-25T04:42:44;23.50;35.90
80256;DHT22;69564;37.974;23.708;2023-04-25T04:45:13;23.50;35.90
80256;DHT22;69564;37.974;23.708;2023-04-25T04:47:39;23.60;35.90
80256;DHT22;69564;37.974;23.708;2023-04-25T04:50:09;23.70;35.70
80256;DHT22;69564;37.974;23.708;2023-04-25T04:52:36;23.70;35.50
80256;DHT22;69564;37.974;23.708;2023-04-25T04:55:03;23.80;35.50
80256;DHT22;69564;37.974;23.708;2023-04-25T04:57:29;23.80;35.40
80256;DHT22;69564;37.974;23.708;2023-04-25T04:59:56;23.90;35.20
80256;DHT22;69564;37.974;23.708;2023-04-25T05:02:22;23.90;35.20
80256;DHT22;69564;37.974;23.708;2023-04-25T05:04:48;24.00;34.90
80256;DHT22;69564;37.974;23.708;2023-04-25T05:07:13;24.10;34.60
80256;DHT22;69564;37.974;23.708;2023-04-25T05:09:39;24.10;34.60
80256;DHT22;69564;37.974;23.708;2023-04-25T05:12:05;24.20;34.40
80256;DHT22;69564;37.974;23.708;2023-04-25T05:14:31;24.20;34.20
80256;DHT22;69564;37.974;23.708;2023-04-25T05:16:56;24.30;34.20
80256;DHT22;69564;37.974;23.708;2023-04-25T05:19:23;24.40;34.00
80256;DHT22;69564;37.974;23.708;2023-04-25T05:21:49;24.40;33.70
80256;DHT22;69564;37.974;23.708;2023-04-25T05:24:15;24.50;33.20
80256;DHT22;69564;37.974;23.708;2023-04-25T05:26:41;24.60;32.00
80256;DHT22;69564;37.974;23.708;2023-04-25T05:29:06;24.70;31.90
80256;DHT22;69564;37.974;23.708;2023-04-25T05:31:32;24.60;31.90
80256;DHT22;69564;37.974;23.708;2023-04-25T05:33:58;24.70;31.70
80256;DHT22;69564;37.974;23.708;2023-04-25T05:36:24;24.70;31.50
80256;DHT22;69564;37.974;23.708;2023-04-25T05:38:51;24.70;31.50
80256;DHT22;69564;37.974;23.708;2023-04-25T05:41:17;24.70;31.20
80256;DHT22;69564;37.974;23.708;2023-04-25T05:43:42;24.70;30.90
80256;DHT22;69564;37.974;23.708;2023-04-25T05:46:12;24.80;30.60
80256;DHT22;69564;37.974;23.708;2023-04-25T05:48:38;24.80;30.50
80256;DHT22;69564;37.974;23.708;2023-04-25T05:51:04;24.90;30.50
80256;DHT22;69564;37.974;23.708;2023-04-25T05:53:30;24.90;30.40
80256;DHT22;69564;37.974;23.708;2023-04-25T05:55:56;24.90;30.20
80256;DHT22;69564;37.974;23.708;2023-04-25T05:58:22;24.90;30.00
80256;DHT22;69564;37.974;23.708;2023-04-25T06:00:48;24.90;30.00
80256;DHT22;69564;37.974;23.708;2023-04-25T06:03:13;25.00;30.00
80256;DHT22;69564;37.974;23.708;2023-04-25T06:05:42;25.00;30.00
80256;DHT22;69564;37.974;23.708;2023-04-25T06:08:09;25.00;29.90
80256;DHT22;69564;37.974;23.708;2023-04-25T06:10:36;25.10;29.70
80256;DHT22;69564;37.974;23.708;2023-04-25T06:13:01;25.10;29.70
80256;DHT22;69564;37.974;23.708;2023-04-25T06:15:27;25.10;29.50
80256;DHT22;69564;37.974;23.708;2023-04-25T06:17:53;25.10;29.50
80256;DHT22;69564;37.974;23.708;2023-04-25T06:20:19;25.10;29.40
80256;DHT22;69564;37.974;23.708;2023-04-25T06:22:49;25.10;29.40
80256;DHT22;69564;37.974;23.708;2023-04-25T06:25:15;25.10;29.40
80256;DHT22;69564;37.974;23.708;2023-04-25T06:27:40;25.10;29.30
80256;DHT22;69564;37.974;23.708;2023-04-25T06:30:07;25.10;29.30
80256;DHT22;69564;37.974;23.708;2023-04-25T06:32:32;25.20;29.20
80256;DHT22;69564;37.974;23.708;2023-04-25T06:35:00;25.20;29.20
80256;DHT22;69564;37.974;23.708;2023-04-25T06:37:25;25.20;29.10
80256;DHT22;69564;37.974;23.708;2023-04-25T06:39:51;25.20;29.00
80256;DHT22;69564;37.974;23.708;2023-04-25T06:42:17;25.30;29.00
80256;DHT22;69564;37.974;23.708;2023-04-25T06:44:43;25.30;29.00
80256;DHT22;69564;37.974;23.708;2023-04-25T06:47:08;25.30;28.90
80256;DHT22;69564;37.974;23.708;2023-04-25T06:49:34;25.30;28.90
80256;DHT22;69564;37.974;23.708;2023-04-25T06:52:00;25.30;28.80
80256;DHT22;69564;37.974;23.708;2023-04-25T06:54:26;25.30;28.80
80256;DHT22;69564;37.974;23.708;2023-04-25T06:56:54;25.30;28.90
80256;DHT22;69564;37.974;23.708;2023-04-25T06:59:20;25.40;28.80
80256;DHT22;69564;37.974;23.708;2023-04-25T07:01:45;25.40;29.80
80256;DHT22;69564;37.974;23.708;2023-04-25T07:04:11;25.50;28.30
80256;DHT22;69564;37.974;23.708;2023-04-25T07:06:37;25.70;27.90
80256;DHT22;69564;37.974;23.708;2023-04-25T07:09:08;25.70;27.90
80256;DHT22;69564;37.974;23.708;2023-04-25T07:11:34;25.70;27.70
80256;DHT22;69564;37.974;23.708;2023-04-25T07:14:00;25.70;27.50
80256;DHT22;69564;37.974;23.708;2023-04-25T07:16:26;25.70;27.50
80256;DHT22;69564;37.974;23.708;2023-04-25T07:18:51;25.70;27.50
80256;DHT22;69564;37.974;23.708;2023-04-25T07:21:17;25.70;27.70
80256;DHT22;69564;37.974;23.708;2023-04-25T07:23:43;25.60;28.00
80256;DHT22;69564;37.974;23.708;2023-04-25T07:26:09;25.50;28.20
80256;DHT22;69564;37.974;23.708;2023-04-25T07:28:34;25.50;28.50
80256;DHT22;69564;37.974;23.708;2023-04-25T07:31:00;25.50;29.00
80256;DHT22;69564;37.974;23.708;2023-04-25T07:33:27;25.50;28.80
80256;DHT22;69564;37.974;23.708;2023-04-25T07:35:53;25.50;28.80
80256;DHT22;69564;37.974;23.708;2023-04-25T07:38:18;25.60;28.80
80256;DHT22;69564;37.974;23.708;2023-04-25T07:40:44;25.60;28.90
80256;DHT22;69564;37.974;23.708;2023-04-25T07:43:10;25.70;28.80
80256;DHT22;69564;37.974;23.708;2023-04-25T07:45:39;25.70;28.40
80256;DHT22;69564;37.974;23.708;2023-04-25T07:48:05;25.80;28.20
80256;DHT22;69564;37.974;23.708;2023-04-25T07:50:31;25.70;28.20
80256;DHT22;69564;37.974;23.708;2023-04-25T07:52:56;25.70;28.40
80256;DHT22;69564;37.974;23.708;2023-04-25T07:55:22;25.70;28.50
80256;DHT22;69564;37.974;23.708;2023-04-25T07:57:48;25.60;28.70
80256;DHT22;69564;37.974;23.708;2023-04-25T08:00:14;25.70;28.70
80256;DHT22;69564;37.974;23.708;2023-04-25T08:02:40;25.70;28.80
80256;DHT22;69564;37.974;23.708;2023-04-25T08:05:06;25.70;28.80
80256;DHT22;69564;37.974;23.708;2023-04-25T08:07:33;25.70;28.80
80256;DHT22;69564;37.974;23.708;2023-04-25T08:10:00;25.80;28.90
80256;DHT22;69564;37.974;23.708;2023-04-25T08:12:26;25.80;28.90
80256;DHT22;69564;37.974;23.708;2023-04-25T08:14:51;25.80;29.00
80256;DHT22;69564;37.974;23.708;2023-04-25T08:17:17;25.80;28.90
80256;DHT22;69564;37.974;23.708;2023-04-25T08:19:43;25.80;28.90
80256;DHT22;69564;37.974;23.708;2023-04-25T08:22:09;25.80;28.80
80256;DHT22;69564;37.974;23.708;2023-04-25T08:24:34;25.80;28.80
80256;DHT22;69564;37.974;23.708;2023-04-25T08:27:00;25.80;28.80
80256;DHT22;69564;37.974;23.708;2023-04-25T08:29:26;25.80;28.80
80256;DHT22;69564;37.974;23.708;2023-04-25T08:31:53;25.80;28.80
80256;DHT22;69564;37.974;23.708;2023-04-25T08:34:19;25.80;28.80
80256;DHT22;69564;37.974;23.708;2023-04-25T08:36:46;25.80;28.80
80256;DHT22;69564;37.974;23.708;2023-04-25T08:39:11;25.80;28.70
80256;DHT22;69564;37.974;23.708;2023-04-25T08:41:38;25.80;28.70
80256;DHT22;69564;37.974;23.708;2023-04-25T08:44:09;25.80;28.70
80256;DHT22;69564;37.974;23.708;2023-04-25T08:46:38;25.80;28.70
80256;DHT22;69564;37.974;23.708;2023-04-25T08:49:05;25.80;28.60
80256;DHT22;69564;37.974;23.708;2023-04-25T08:51:33;25.80;28.70
80256;DHT22;69564;37.974;23.708;2023-04-25T08:54:10;25.80;28.70
80256;DHT22;69564;37.974;23.708;2023-04-25T08:56:47;25.80;28.90
80256;DHT22;69564;37.974;23.708;2023-04-25T08:59:13;25.90;28.90
80256;DHT22;69564;37.974;23.708;2023-04-25T09:01:39;25.80;28.80
80256;DHT22;69564;37.974;23.708;2023-04-25T09:04:05;25.80;28.80
80256;DHT22;69564;37.974;23.708;2023-04-25T09:06:32;25.80;28.70
80256;DHT22;69564;37.974;23.708;2023-04-25T09:09:05;25.80;28.70
80256;DHT22;69564;37.974;23.708;2023-04-25T09:11:32;25.90;28.70
80256;DHT22;69564;37.974;23.708;2023-04-25T09:14:17;25.80;28.70
80256;DHT22;69564;37.974;23.708;2023-04-25T09:16:58;25.80;28.70
80256;DHT22;69564;37.974;23.708;2023-04-25T09:19:35;25.80;28.70
80256;DHT22;69564;37.974;23.708;2023-04-25T09:22:03;25.80;28.60
80256;DHT22;69564;37.974;23.708;2023-04-25T09:24:40;25.90;28.50
80256;DHT22;69564;37.974;23.708;2023-04-25T09:27:27;25.80;28.50
80256;DHT22;69564;37.974;23.708;2023-04-25T09:29:58;25.80;28.50
80256;DHT22;69564;37.974;23.708;2023-04-25T09:32:26;25.80;28.50
80256;DHT22;69564;37.974;23.708;2023-04-25T09:34:56;25.80;28.50
80256;DHT22;69564;37.974;23.708;2023-04-25T09:37:27;25.80;28.70
80256;DHT22;69564;37.974;23.708;2023-04-25T09:39:54;25.80;28.80
80256;DHT22;69564;37.974;23.708;2023-04-25T09:42:25;25.90;28.70
80256;DHT22;69564;37.974;23.708;2023-04-25T09:44:55;25.90;28.80
80256;DHT22;69564;37.974;23.708;2023-04-25T09:47:23;25.80;29.00
80256;DHT22;69564;37.974;23.708;2023-04-25T09:49:50;25.80;29.10
80256;DHT22;69564;37.974;23.708;2023-04-25T09:52:23;25.80;29.00
80256;DHT22;69564;37.974;23.708;2023-04-25T09:54:50;25.80;29.00
80256;DHT22;69564;37.974;23.708;2023-04-25T09:59:52;25.80;28.80
80256;DHT22;69564;37.974;23.708;2023-04-25T10:02:20;25.80;28.80
80256;DHT22;69564;37.974;23.708;2023-04-25T10:04:52;25.80;28.70
80256;DHT22;69564;37.974;23.708;2023-04-25T10:07:22;25.80;28.70
80256;DHT22;69564;37.974;23.708;2023-04-25T10:09:56;25.80;28.80
80256;DHT22;69564;37.974;23.708;2023-04-25T10:12:24;25.80;28.90
80256;DHT22;69564;37.974;23.708;2023-04-25T10:14:52;25.80;29.00
80256;DHT22;69564;37.974;23.708;2023-04-25T10:17:20;25.80;28.90
80256;DHT22;69564;37.974;23.708;2023-04-25T10:19:49;25.80;29.10
80256;DHT22;69564;37.974;23.708;2023-04-25T10:22:20;25.80;29.10
80256;DHT22;69564;37.974;23.708;2023-04-25T10:24:49;25.80;29.10
80256;DHT22;69564;37.974;23.708;2023-04-25T10:27:16;25.70;29.00
80256;DHT22;69564;37.974;23.708;2023-04-25T10:29:42;25.70;29.00
80256;DHT22;69564;37.974;23.708;2023-04-25T10:32:11;25.70;29.00
80256;DHT22;69564;37.974;23.708;2023-04-25T10:34:43;25.70;28.90
80256;DHT22;69564;37.974;23.708;2023-04-25T10:37:12;25.70;28.80
80256;DHT22;69564;37.974;23.708;2023-04-25T10:39:40;25.70;28.80
80256;DHT22;69564;37.974;23.708;2023-04-25T10:42:07;25.70;28.80
80256;DHT22;69564;37.974;23.708;2023-04-25T10:44:37;25.70;28.70
80256;DHT22;69564;37.974;23.708;2023-04-25T10:47:06;25.60;28.40
80256;DHT22;69564;37.974;23.708;2023-04-25T10:49:43;25.70;28.30
80256;DHT22;69564;37.974;23.708;2023-04-25T10:52:25;25.70;28.30
80256;DHT22;69564;37.974;23.708;2023-04-25T10:54:57;25.70;28.50
80256;DHT22;69564;37.974;23.708;2023-04-25T11:00:13;25.70;28.60
80256;DHT22;69564;37.974;23.708;2023-04-25T11:02:44;25.60;28.60
80256;DHT22;69564;37.974;23.708;2023-04-25T11:05:15;25.60;28.70
80256;DHT22;69564;37.974;23.708;2023-04-25T11:07:51;25.70;28.50
80256;DHT22;69564;37.974;23.708;2023-04-25T11:10:18;25.70;28.50
80256;DHT22;69564;37.974;23.708;2023-04-25T11:12:45;25.70;28.60
80256;DHT22;69564;37.974;23.708;2023-04-25T11:15:11;25.70;28.50
80256;DHT22;69564;37.974;23.708;2023-04-25T11:17:38;25.70;28.40
80256;DHT22;69564;37.974;23.708;2023-04-25T11:20:07;25.70;28.40
80256;DHT22;69564;37.974;23.708;2023-04-25T11:22:38;25.70;29.20
80256;DHT22;69564;37.974;23.708;2023-04-25T11:25:09;25.70;28.30
80256;DHT22;69564;37.974;23.708;2023-04-25T11:30:18;25.70;28.20
80256;DHT22;69564;37.974;23.708;2023-04-25T11:32:44;25.80;28.20
80256;DHT22;69564;37.974;23.708;2023-04-25T11:35:11;25.80;28.10
80256;DHT22;69564;37.974;23.708;2023-04-25T11:37:39;25.80;28.10
80256;DHT22;69564;37.974;23.708;2023-04-25T11:40:06;25.70;28.00
80256;DHT22;69564;37.974;23.708;2023-04-25T11:42:32;25.70;28.10
80256;DHT22;69564;37.974;23.708;2023-04-25T11:44:59;25.70;28.00
80256;DHT22;69564;37.974;23.708;2023-04-25T11:47:34;25.70;28.00
80256;DHT22;69564;37.974;23.708;2023-04-25T11:50:04;25.70;27.90
80256;DHT22;69564;37.974;23.708;2023-04-25T11:55:05;25.80;27.70
80256;DHT22;69564;37.974;23.708;2023-04-25T11:57:32;25.90;27.80
80256;DHT22;69564;37.974;23.708;2023-04-25T12:00:11;25.90;27.60
80256;DHT22;69564;37.974;23.708;2023-04-25T12:02:40;26.00;27.90
80256;DHT22;69564;37.974;23.708;2023-04-25T12:05:07;26.00;27.90
80256;DHT22;69564;37.974;23.708;2023-04-25T12:07:34;26.00;28.90
80256;DHT22;69564;37.974;23.708;2023-04-25T12:10:04;26.00;28.00
80256;DHT22;69564;37.974;23.708;2023-04-25T12:12:34;26.00;28.00
80256;DHT22;69564;37.974;23.708;2023-04-25T12:15:13;26.00;27.90
80256;DHT22;69564;37.974;23.708;2023-04-25T12:17:45;26.00;28.00
80256;DHT22;69564;37.974;23.708;2023-04-25T12:20:17;26.00;28.00
80256;DHT22;69564;37.974;23.708;2023-04-25T12:22:45;26.10;28.00
80256;DHT22;69564;37.974;23.708;2023-04-25T12:25:13;26.00;27.70
80256;DHT22;69564;37.974;23.708;2023-04-25T12:27:40;26.20;27.10
80256;DHT22;69564;37.974;23.708;2023-04-25T12:30:09;26.20;26.90
80256;DHT22;69564;37.974;23.708;2023-04-25T12:32:36;26.20;27.10
80256;DHT22;69564;37.974;23.708;2023-04-25T12:35:04;26.00;27.20
80256;DHT22;69564;37.974;23.708;2023-04-25T12:37:30;26.00;27.60
80256;DHT22;69564;37.974;23.708;2023-04-25T12:39:56;26.00;27.90
80256;DHT22;69564;37.974;23.708;2023-04-25T12:42:22;25.90;28.10
80256;DHT22;69564;37.974;23.708;2023-04-25T12:44:47;25.90;28.20
80256;DHT22;69564;37.974;23.708;2023-04-25T12:47:14;25.90;28.40
80256;DHT22;69564;37.974;23.708;2023-04-25T12:49:40;25.90;28.50
80256;DHT22;69564;37.974;23.708;2023-04-25T12:52:06;25.90;28.60
80256;DHT22;69564;37.974;23.708;2023-04-25T12:54:31;25.80;28.70
80256;DHT22;69564;37.974;23.708;2023-04-25T12:56:57;25.90;28.80
80256;DHT22;69564;37.974;23.708;2023-04-25T12:59:23;25.90;28.80
80256;DHT22;69564;37.974;23.708;2023-04-25T13:01:49;25.90;28.80
80256;DHT22;69564;37.974;23.708;2023-04-25T13:04:15;25.90;28.80
80256;DHT22;69564;37.974;23.708;2023-04-25T13:06:41;25.90;28.80
80256;DHT22;69564;37.974;23.708;2023-04-25T13:09:07;25.90;28.90
80256;DHT22;69564;37.974;23.708;2023-04-25T13:11:32;25.90;28.90
80256;DHT22;69564;37.974;23.708;2023-04-25T13:13:58;25.90;28.90
80256;DHT22;69564;37.974;23.708;2023-04-25T13:16:24;25.90;28.90
80256;DHT22;69564;37.974;23.708;2023-04-25T13:18:49;25.90;28.80
80256;DHT22;69564;37.974;23.708;2023-04-25T13:21:15;25.90;28.90
80256;DHT22;69564;37.974;23.708;2023-04-25T13:23:41;25.90;28.70
80256;DHT22;69564;37.974;23.708;2023-04-25T13:26:08;25.90;28.50
80256;DHT22;69564;37.974;23.708;2023-04-25T13:28:34;25.90;28.50
80256;DHT22;69564;37.974;23.708;2023-04-25T13:31:00;26.00;28.50
80256;DHT22;69564;37.974;23.708;2023-04-25T13:33:25;26.00;28.40
80256;DHT22;69564;37.974;23.708;2023-04-25T13:35:51;26.00;28.40
80256;DHT22;69564;37.974;23.708;2023-04-25T13:38:23;25.90;28.40
80256;DHT22;69564;37.974;23.708;2023-04-25T13:40:50;25.90;28.40
80256;DHT22;69564;37.974;23.708;2023-04-25T13:43:21;25.80;28.30
80256;DHT22;69564;37.974;23.708;2023-04-25T13:45:50;25.80;28.40
80256;DHT22;69564;37.974;23.708;2023-04-25T13:48:17;25.70;28.30
80256;DHT22;69564;37.974;23.708;2023-04-25T13:50:43;25.70;28.30
80256;DHT22;69564;37.974;23.708;2023-04-25T13:53:09;25.70;28.30
80256;DHT22;69564;37.974;23.708;2023-04-25T13:55:35;25.70;28.20
80256;DHT22;69564;37.974;23.708;2023-04-25T13:58:04;25.70;28.20
80256;DHT22;69564;37.974;23.708;2023-04-25T14:00:34;25.60;28.30
80256;DHT22;69564;37.974;23.708;2023-04-25T14:03:00;25.70;28.30
80256;DHT22;69564;37.974;23.708;2023-04-25T14:05:30;25.60;28.20
80256;DHT22;69564;37.974;23.708;2023-04-25T14:07:55;25.60;28.20
80256;DHT22;69564;37.974;23.708;2023-04-25T14:10:21;25.60;28.20
80256;DHT22;69564;37.974;23.708;2023-04-25T14:12:47;25.50;28.10
80256;DHT22;69564;37.974;23.708;2023-04-25T14:15:13;25.50;28.20
80256;DHT22;69564;37.974;23.708;2023-04-25T14:17:38;25.50;28.30
80256;DHT22;69564;37.974;23.708;2023-04-25T14:20:05;25.50;28.30
80256;DHT22;69564;37.974;23.708;2023-04-25T14:22:32;25.50;28.50
80256;DHT22;69564;37.974;23.708;2023-04-25T14:24:58;25.40;28.40
80256;DHT22;69564;37.974;23.708;2023-04-25T14:27:23;25.50;28.50
80256;DHT22;69564;37.974;23.708;2023-04-25T14:29:50;25.40;28.50
80256;DHT22;69564;37.974;23.708;2023-04-25T14:32:15;25.40;28.60
80256;DHT22;69564;37.974;23.708;2023-04-25T14:34:41;25.40;28.80
80256;DHT22;69564;37.974;23.708;2023-04-25T14:37:07;25.30;28.80
80256;DHT22;69564;37.974;23.708;2023-04-25T14:39:33;25.40;28.80
80256;DHT22;69564;37.974;23.708;2023-04-25T14:41:58;25.40;28.80
80256;DHT22;69564;37.974;23.708;2023-04-25T14:44:24;25.40;28.90
80256;DHT22;69564;37.974;23.708;2023-04-25T14:46:50;25.30;29.00
80256;DHT22;69564;37.974;23.708;2023-04-25T14:49:17;25.30;29.00
80256;DHT22;69564;37.974;23.708;2023-04-25T14:51:42;25.30;29.10
80256;DHT22;69564;37.974;23.708;2023-04-25T14:54:08;25.30;29.10
80256;DHT22;69564;37.974;23.708;2023-04-25T14:56:34;25.30;29.20
80256;DHT22;69564;37.974;23.708;2023-04-25T14:59:00;25.30;29.20
80256;DHT22;69564;37.974;23.708;2023-04-25T15:01:25;25.30;29.20
80256;DHT22;69564;37.974;23.708;2023-04-25T15:03:51;25.30;29.20
80256;DHT22;69564;37.974;23.708;2023-04-25T15:06:17;25.30;29.30
80256;DHT22;69564;37.974;23.708;2023-04-25T15:08:43;25.30;29.40
80256;DHT22;69564;37.974;23.708;2023-04-25T15:11:08;25.30;29.40
80256;DHT22;69564;37.974;23.708;2023-04-25T15:13:36;25.30;29.50
80256;DHT22;69564;37.974;23.708;2023-04-25T15:16:02;25.30;29.40
80256;DHT22;69564;37.974;23.708;2023-04-25T15:18:28;25.30;29.40
80256;DHT22;69564;37.974;23.708;2023-04-25T15:20:54;25.30;29.50
80256;DHT22;69564;37.974;23.708;2023-04-25T15:23:20;25.30;29.50
80256;DHT22;69564;37.974;23.708;2023-04-25T15:25:47;25.30;29.50